sensor_id;sensor_type;location;lat;lon;timestamp;P1;durP1;ratioP1;P2;durP2;ratioP2
15192;SDS011;7697;51.630;7.484;2022-08-19T00:00:16;3.75;;;3.25;;
15192;SDS011;7697;51.630;7.484;2022-08-19T00:05:19;3.65;;;3.35;;
15192;SDS011;7697;51.630;7.484;2022-08-19T00:10:24;4.50;;;4.20;;
15192;SDS011;7697;51.630;7.484;2022-08-19T00:15:25;3.97;;;3.58;;
15192;SDS011;7697;51.630;7.484;2022-08-19T00:20:27;4.45;;;4.15;;
15192;SDS011;7697;51.630;7.484;2022-08-19T00:25:30;4.72;;;4.32;;
15192;SDS011;7697;51.630;7.484;2022-08-19T00:30:32;4.13;;;3.75;;
15192;SDS011;7697;51.630;7.484;2022-08-19T00:35:34;3.95;;;3.63;;
15192;SDS011;7697;51.630;7.484;2022-08-19T00:40:40;3.90;;;3.60;;
15192;SDS011;7697;51.630;7.484;2022-08-19T00:45:46;4.20;;;3.90;;
15192;SDS011;7697;51.630;7.484;2022-08-19T00:50:50;4.28;;;3.90;;
15192;SDS011;7697;51.630;7.484;2022-08-19T00:55:55;4.47;;;4.07;;
15192;SDS011;7697;51.630;7.484;2022-08-19T01:01:01;4.03;;;3.72;;
15192;SDS011;7697;51.630;7.484;2022-08-19T01:06:03;4.68;;;4.32;;
15192;SDS011;7697;51.630;7.484;2022-08-19T01:11:08;4.15;;;3.78;;
15192;SDS011;7697;51.630;7.484;2022-08-19T01:16:09;4.55;;;4.18;;
15192;SDS011;7697;51.630;7.484;2022-08-19T01:21:15;4.57;;;4.18;;
15192;SDS011;7697;51.630;7.484;2022-08-19T01:26:22;5.72;;;5.18;;
15192;SDS011;7697;51.630;7.484;2022-08-19T01:31:26;4.85;;;4.45;;
15192;SDS011;7697;51.630;7.484;2022-08-19T01:36:31;4.32;;;4.03;;
15192;SDS011;7697;51.630;7.484;2022-08-19T01:41:36;4.78;;;4.38;;
15192;SDS011;7697;51.630;7.484;2022-08-19T01:46:38;5.07;;;4.57;;
15192;SDS011;7697;51.630;7.484;2022-08-19T01:51:40;5.40;;;4.90;;
15192;SDS011;7697;51.630;7.484;2022-08-19T01:56:43;4.72;;;4.32;;
15192;SDS011;7697;51.630;7.484;2022-08-19T02:01:45;5.40;;;4.90;;
15192;SDS011;7697;51.630;7.484;2022-08-19T02:06:47;4.88;;;4.47;;
15192;SDS011;7697;51.630;7.484;2022-08-19T02:11:50;6.18;;;5.57;;
15192;SDS011;7697;51.630;7.484;2022-08-19T02:16:52;5.80;;;5.30;;
15192;SDS011;7697;51.630;7.484;2022-08-19T02:21:53;5.45;;;4.95;;
15192;SDS011;7697;51.630;7.484;2022-08-19T02:26:57;4.93;;;4.53;;
15192;SDS011;7697;51.630;7.484;2022-08-19T02:31:58;4.85;;;4.45;;
15192;SDS011;7697;51.630;7.484;2022-08-19T02:37:00;4.45;;;4.13;;
15192;SDS011;7697;51.630;7.484;2022-08-19T02:42:03;5.15;;;4.70;;
15192;SDS011;7697;51.630;7.484;2022-08-19T02:47:05;5.32;;;4.85;;
15192;SDS011;7697;51.630;7.484;2022-08-19T02:52:07;5.22;;;4.82;;
15192;SDS011;7697;51.630;7.484;2022-08-19T02:57:10;5.65;;;4.72;;
15192;SDS011;7697;51.630;7.484;2022-08-19T03:02:12;5.63;;;5.13;;
15192;SDS011;7697;51.630;7.484;2022-08-19T03:07:14;4.93;;;4.53;;
15192;SDS011;7697;51.630;7.484;2022-08-19T03:12:17;4.72;;;4.32;;
15192;SDS011;7697;51.630;7.484;2022-08-19T03:17:19;4.15;;;3.85;;
15192;SDS011;7697;51.630;7.484;2022-08-19T03:22:20;4.03;;;3.72;;
15192;SDS011;7697;51.630;7.484;2022-08-19T03:27:23;4.05;;;3.75;;
15192;SDS011;7697;51.630;7.484;2022-08-19T03:32:25;3.85;;;3.55;;
15192;SDS011;7697;51.630;7.484;2022-08-19T03:37:27;4.20;;;3.88;;
15192;SDS011;7697;51.630;7.484;2022-08-19T03:42:31;4.35;;;4.05;;
15192;SDS011;7697;51.630;7.484;2022-08-19T03:47:32;4.60;;;4.30;;
15192;SDS011;7697;51.630;7.484;2022-08-19T03:52:34;4.40;;;4.10;;
15192;SDS011;7697;51.630;7.484;2022-08-19T03:57:37;5.10;;;4.70;;
15192;SDS011;7697;51.630;7.484;2022-08-19T04:02:39;5.07;;;4.68;;
15192;SDS011;7697;51.630;7.484;2022-08-19T04:07:41;4.72;;;4.30;;
15192;SDS011;7697;51.630;7.484;2022-08-19T04:12:44;4.45;;;3.78;;
15192;SDS011;7697;51.630;7.484;2022-08-19T04:17:46;4.32;;;3.67;;
15192;SDS011;7697;51.630;7.484;2022-08-19T04:22:48;3.85;;;3.55;;
15192;SDS011;7697;51.630;7.484;2022-08-19T04:27:51;4.38;;;3.97;;
15192;SDS011;7697;51.630;7.484;2022-08-19T04:32:53;4.70;;;4.30;;
15192;SDS011;7697;51.630;7.484;2022-08-19T04:37:54;4.65;;;4.25;;
15192;SDS011;7697;51.630;7.484;2022-08-19T04:42:57;5.63;;;5.13;;
15192;SDS011;7697;51.630;7.484;2022-08-19T04:47:59;6.15;;;5.55;;
15192;SDS011;7697;51.630;7.484;2022-08-19T04:53:01;7.03;;;5.22;;
15192;SDS011;7697;51.630;7.484;2022-08-19T04:58:06;6.25;;;5.75;;
15192;SDS011;7697;51.630;7.484;2022-08-19T05:03:07;6.32;;;5.72;;
15192;SDS011;7697;51.630;7.484;2022-08-19T05:08:09;7.00;;;6.43;;
15192;SDS011;7697;51.630;7.484;2022-08-19T05:13:12;7.40;;;6.70;;
15192;SDS011;7697;51.630;7.484;2022-08-19T05:18:15;9.10;;;5.68;;
15192;SDS011;7697;51.630;7.484;2022-08-19T05:23:34;6.45;;;5.85;;
15192;SDS011;7697;51.630;7.484;2022-08-19T05:28:37;6.15;;;5.65;;
15192;SDS011;7697;51.630;7.484;2022-08-19T05:33:38;6.40;;;5.63;;
15192;SDS011;7697;51.630;7.484;2022-08-19T05:38:40;6.50;;;5.90;;
15192;SDS011;7697;51.630;7.484;2022-08-19T05:43:43;7.35;;;6.70;;
15192;SDS011;7697;51.630;7.484;2022-08-19T05:48:45;7.43;;;6.63;;
15192;SDS011;7697;51.630;7.484;2022-08-19T05:53:48;7.20;;;6.43;;
15192;SDS011;7697;51.630;7.484;2022-08-19T05:58:52;7.32;;;6.63;;
15192;SDS011;7697;51.630;7.484;2022-08-19T06:03:54;6.60;;;6.00;;
15192;SDS011;7697;51.630;7.484;2022-08-19T06:08:55;6.63;;;6.03;;
15192;SDS011;7697;51.630;7.484;2022-08-19T06:14:00;6.55;;;5.95;;
15192;SDS011;7697;51.630;7.484;2022-08-19T06:19:05;6.22;;;5.72;;
15192;SDS011;7697;51.630;7.484;2022-08-19T06:24:09;7.72;;;7.13;;
15192;SDS011;7697;51.630;7.484;2022-08-19T06:29:14;8.65;;;7.85;;
15192;SDS011;7697;51.630;7.484;2022-08-19T06:34:18;12.32;;;7.07;;
15192;SDS011;7697;51.630;7.484;2022-08-19T06:39:23;8.98;;;8.13;;
15192;SDS011;7697;51.630;7.484;2022-08-19T06:44:29;9.40;;;8.38;;
15192;SDS011;7697;51.630;7.484;2022-08-19T06:49:36;10.60;;;9.63;;
15192;SDS011;7697;51.630;7.484;2022-08-19T06:54:38;11.45;;;10.35;;
15192;SDS011;7697;51.630;7.484;2022-08-19T06:59:42;13.55;;;11.95;;
15192;SDS011;7697;51.630;7.484;2022-08-19T07:04:44;13.60;;;9.55;;
15192;SDS011;7697;51.630;7.484;2022-08-19T07:09:46;16.15;;;12.57;;
15192;SDS011;7697;51.630;7.484;2022-08-19T07:14:49;16.60;;;14.68;;
15192;SDS011;7697;51.630;7.484;2022-08-19T07:19:52;14.32;;;12.82;;
15192;SDS011;7697;51.630;7.484;2022-08-19T07:24:55;14.60;;;12.38;;
15192;SDS011;7697;51.630;7.484;2022-08-19T07:29:58;14.70;;;13.30;;
15192;SDS011;7697;51.630;7.484;2022-08-19T07:34:59;14.70;;;13.18;;
15192;SDS011;7697;51.630;7.484;2022-08-19T07:40:03;19.30;;;16.52;;
15192;SDS011;7697;51.630;7.484;2022-08-19T07:45:07;14.45;;;13.00;;
15192;SDS011;7697;51.630;7.484;2022-08-19T07:50:10;12.13;;;10.75;;
15192;SDS011;7697;51.630;7.484;2022-08-19T07:55:12;16.88;;;15.10;;
15192;SDS011;7697;51.630;7.484;2022-08-19T08:00:16;12.88;;;11.63;;
15192;SDS011;7697;51.630;7.484;2022-08-19T08:05:17;13.18;;;11.88;;
15192;SDS011;7697;51.630;7.484;2022-08-19T08:10:37;14.80;;;12.63;;
15192;SDS011;7697;51.630;7.484;2022-08-19T08:15:40;17.08;;;15.38;;
15192;SDS011;7697;51.630;7.484;2022-08-19T08:20:44;16.40;;;14.48;;
15192;SDS011;7697;51.630;7.484;2022-08-19T08:25:46;15.65;;;14.02;;
15192;SDS011;7697;51.630;7.484;2022-08-19T08:30:49;10.75;;;9.73;;
15192;SDS011;7697;51.630;7.484;2022-08-19T08:35:51;12.23;;;11.00;;
15192;SDS011;7697;51.630;7.484;2022-08-19T08:40:55;11.88;;;10.30;;
15192;SDS011;7697;51.630;7.484;2022-08-19T08:46:05;11.93;;;10.82;;
15192;SDS011;7697;51.630;7.484;2022-08-19T08:51:11;10.35;;;8.75;;
15192;SDS011;7697;51.630;7.484;2022-08-19T08:56:18;9.25;;;8.25;;
15192;SDS011;7697;51.630;7.484;2022-08-19T09:01:22;7.60;;;6.25;;
15192;SDS011;7697;51.630;7.484;2022-08-19T09:06:32;7.90;;;7.10;;
15192;SDS011;7697;51.630;7.484;2022-08-19T09:11:44;9.05;;;8.25;;
15192;SDS011;7697;51.630;7.484;2022-08-19T09:16:58;7.07;;;6.38;;
15192;SDS011;7697;51.630;7.484;2022-08-19T09:22:00;7.93;;;7.22;;
15192;SDS011;7697;51.630;7.484;2022-08-19T09:27:02;7.38;;;6.60;;
15192;SDS011;7697;51.630;7.484;2022-08-19T09:32:05;6.05;;;5.55;;
15192;SDS011;7697;51.630;7.484;2022-08-19T09:37:07;6.75;;;6.15;;
15192;SDS011;7697;51.630;7.484;2022-08-19T09:42:09;5.85;;;5.10;;
15192;SDS011;7697;51.630;7.484;2022-08-19T09:47:15;5.55;;;5.05;;
15192;SDS011;7697;51.630;7.484;2022-08-19T09:52:16;4.70;;;4.30;;
15192;SDS011;7697;51.630;7.484;2022-08-19T09:57:18;4.90;;;4.28;;
15192;SDS011;7697;51.630;7.484;2022-08-19T10:02:21;6.85;;;5.35;;
15192;SDS011;7697;51.630;7.484;2022-08-19T10:07:24;5.35;;;4.85;;
15192;SDS011;7697;51.630;7.484;2022-08-19T10:12:26;4.50;;;4.20;;
15192;SDS011;7697;51.630;7.484;2022-08-19T10:17:29;4.55;;;4.15;;
15192;SDS011;7697;51.630;7.484;2022-08-19T10:22:35;5.22;;;4.72;;
15192;SDS011;7697;51.630;7.484;2022-08-19T10:27:37;4.28;;;3.92;;
15192;SDS011;7697;51.630;7.484;2022-08-19T10:32:40;7.07;;;6.38;;
15192;SDS011;7697;51.630;7.484;2022-08-19T10:37:42;5.50;;;4.90;;
15192;SDS011;7697;51.630;7.484;2022-08-19T10:42:43;4.85;;;4.45;;
15192;SDS011;7697;51.630;7.484;2022-08-19T10:47:47;4.20;;;3.90;;
15192;SDS011;7697;51.630;7.484;2022-08-19T10:52:49;5.53;;;5.03;;
15192;SDS011;7697;51.630;7.484;2022-08-19T10:57:51;4.05;;;3.72;;
15192;SDS011;7697;51.630;7.484;2022-08-19T11:02:54;4.38;;;3.97;;
15192;SDS011;7697;51.630;7.484;2022-08-19T11:07:57;6.53;;;5.93;;
15192;SDS011;7697;51.630;7.484;2022-08-19T11:12:58;8.25;;;7.45;;
15192;SDS011;7697;51.630;7.484;2022-08-19T11:18:02;6.15;;;5.53;;
15192;SDS011;7697;51.630;7.484;2022-08-19T11:23:04;6.25;;;5.65;;
15192;SDS011;7697;51.630;7.484;2022-08-19T11:28:06;8.13;;;6.43;;
15192;SDS011;7697;51.630;7.484;2022-08-19T11:33:09;6.97;;;6.38;;
15192;SDS011;7697;51.630;7.484;2022-08-19T11:38:11;7.85;;;6.30;;
15192;SDS011;7697;51.630;7.484;2022-08-19T11:43:14;6.15;;;5.47;;
15192;SDS011;7697;51.630;7.484;2022-08-19T11:48:17;5.97;;;5.00;;
15192;SDS011;7697;51.630;7.484;2022-08-19T11:53:22;5.63;;;4.35;;
15192;SDS011;7697;51.630;7.484;2022-08-19T11:58:24;4.60;;;3.90;;
15192;SDS011;7697;51.630;7.484;2022-08-19T12:03:27;4.30;;;3.85;;
15192;SDS011;7697;51.630;7.484;2022-08-19T12:08:29;3.63;;;3.33;;
15192;SDS011;7697;51.630;7.484;2022-08-19T12:13:31;3.50;;;3.20;;
15192;SDS011;7697;51.630;7.484;2022-08-19T12:18:34;4.45;;;4.07;;
15192;SDS011;7697;51.630;7.484;2022-08-19T12:23:35;4.60;;;4.20;;
15192;SDS011;7697;51.630;7.484;2022-08-19T12:28:38;6.10;;;5.60;;
15192;SDS011;7697;51.630;7.484;2022-08-19T12:33:43;5.53;;;5.10;;
15192;SDS011;7697;51.630;7.484;2022-08-19T12:38:45;4.53;;;4.13;;
15192;SDS011;7697;51.630;7.484;2022-08-19T12:43:46;4.03;;;3.72;;
15192;SDS011;7697;51.630;7.484;2022-08-19T12:48:50;5.03;;;4.60;;
15192;SDS011;7697;51.630;7.484;2022-08-19T12:53:53;8.85;;;5.72;;
15192;SDS011;7697;51.630;7.484;2022-08-19T12:58:54;6.78;;;6.00;;
15192;SDS011;7697;51.630;7.484;2022-08-19T13:03:58;4.93;;;4.45;;
15192;SDS011;7697;51.630;7.484;2022-08-19T13:09:00;5.65;;;5.15;;
15192;SDS011;7697;51.630;7.484;2022-08-19T13:14:02;5.10;;;4.60;;
15192;SDS011;7697;51.630;7.484;2022-08-19T13:19:06;4.80;;;4.40;;
15192;SDS011;7697;51.630;7.484;2022-08-19T13:24:08;5.57;;;4.22;;
15192;SDS011;7697;51.630;7.484;2022-08-19T13:29:09;4.53;;;4.13;;
15192;SDS011;7697;51.630;7.484;2022-08-19T13:34:30;4.72;;;4.28;;
15192;SDS011;7697;51.630;7.484;2022-08-19T13:39:34;4.57;;;4.18;;
15192;SDS011;7697;51.630;7.484;2022-08-19T13:44:36;3.90;;;3.60;;
15192;SDS011;7697;51.630;7.484;2022-08-19T13:49:39;5.25;;;4.05;;
15192;SDS011;7697;51.630;7.484;2022-08-19T13:54:41;4.20;;;3.90;;
15192;SDS011;7697;51.630;7.484;2022-08-19T13:59:43;6.22;;;4.72;;
15192;SDS011;7697;51.630;7.484;2022-08-19T14:04:46;4.95;;;4.50;;
15192;SDS011;7697;51.630;7.484;2022-08-19T14:09:49;5.53;;;5.07;;
15192;SDS011;7697;51.630;7.484;2022-08-19T14:14:50;5.40;;;4.70;;
15192;SDS011;7697;51.630;7.484;2022-08-19T14:19:57;4.10;;;3.80;;
15192;SDS011;7697;51.630;7.484;2022-08-19T14:25:01;4.20;;;3.80;;
15192;SDS011;7697;51.630;7.484;2022-08-19T14:30:03;5.40;;;3.75;;
15192;SDS011;7697;51.630;7.484;2022-08-19T14:35:07;4.18;;;3.78;;
15192;SDS011;7697;51.630;7.484;2022-08-19T14:40:09;3.30;;;3.00;;
15192;SDS011;7697;51.630;7.484;2022-08-19T14:45:11;3.70;;;3.05;;
15192;SDS011;7697;51.630;7.484;2022-08-19T14:50:15;3.47;;;3.17;;
15192;SDS011;7697;51.630;7.484;2022-08-19T14:55:17;3.33;;;2.75;;
15192;SDS011;7697;51.630;7.484;2022-08-19T15:00:18;3.80;;;3.40;;
15192;SDS011;7697;51.630;7.484;2022-08-19T15:05:22;3.00;;;2.80;;
15192;SDS011;7697;51.630;7.484;2022-08-19T15:10:23;3.53;;;3.13;;
15192;SDS011;7697;51.630;7.484;2022-08-19T15:15:25;4.05;;;3.25;;
15192;SDS011;7697;51.630;7.484;2022-08-19T15:20:29;4.88;;;3.20;;
15192;SDS011;7697;51.630;7.484;2022-08-19T15:25:31;3.42;;;3.13;;
15192;SDS011;7697;51.630;7.484;2022-08-19T15:30:34;4.85;;;2.97;;
15192;SDS011;7697;51.630;7.484;2022-08-19T15:35:37;2.60;;;2.40;;
15192;SDS011;7697;51.630;7.484;2022-08-19T15:40:40;4.65;;;2.58;;
15192;SDS011;7697;51.630;7.484;2022-08-19T15:45:43;3.05;;;2.75;;
15192;SDS011;7697;51.630;7.484;2022-08-19T15:50:47;2.78;;;2.50;;
15192;SDS011;7697;51.630;7.484;2022-08-19T15:55:48;3.80;;;2.53;;
15192;SDS011;7697;51.630;7.484;2022-08-19T16:00:50;2.95;;;2.60;;
15192;SDS011;7697;51.630;7.484;2022-08-19T16:06:11;2.47;;;2.28;;
15192;SDS011;7697;51.630;7.484;2022-08-19T16:11:29;4.20;;;2.88;;
15192;SDS011;7697;51.630;7.484;2022-08-19T16:16:33;4.28;;;3.03;;
15192;SDS011;7697;51.630;7.484;2022-08-19T16:21:36;3.92;;;3.47;;
15192;SDS011;7697;51.630;7.484;2022-08-19T16:26:39;5.30;;;3.90;;
15192;SDS011;7697;51.630;7.484;2022-08-19T16:31:43;5.03;;;3.50;;
15192;SDS011;7697;51.630;7.484;2022-08-19T16:36:47;3.80;;;3.50;;
15192;SDS011;7697;51.630;7.484;2022-08-19T16:41:49;3.92;;;3.63;;
15192;SDS011;7697;51.630;7.484;2022-08-19T16:46:51;5.35;;;3.28;;
15192;SDS011;7697;51.630;7.484;2022-08-19T16:51:54;2.83;;;2.63;;
15192;SDS011;7697;51.630;7.484;2022-08-19T16:56:56;3.10;;;2.90;;
15192;SDS011;7697;51.630;7.484;2022-08-19T17:01:58;5.40;;;4.15;;
15192;SDS011;7697;51.630;7.484;2022-08-19T17:07:01;4.97;;;3.50;;
15192;SDS011;7697;51.630;7.484;2022-08-19T17:12:04;3.70;;;3.40;;
15192;SDS011;7697;51.630;7.484;2022-08-19T17:17:06;3.75;;;3.45;;
15192;SDS011;7697;51.630;7.484;2022-08-19T17:22:13;3.22;;;3.03;;
15192;SDS011;7697;51.630;7.484;2022-08-19T17:27:14;5.10;;;3.40;;
15192;SDS011;7697;51.630;7.484;2022-08-19T17:32:18;3.53;;;3.22;;
15192;SDS011;7697;51.630;7.484;2022-08-19T17:37:21;5.03;;;3.20;;
15192;SDS011;7697;51.630;7.484;2022-08-19T17:42:23;4.32;;;3.60;;
15192;SDS011;7697;51.630;7.484;2022-08-19T17:47:25;4.28;;;3.72;;
15192;SDS011;7697;51.630;7.484;2022-08-19T17:52:28;4.75;;;3.72;;
15192;SDS011;7697;51.630;7.484;2022-08-19T17:57:30;3.88;;;3.47;;
15192;SDS011;7697;51.630;7.484;2022-08-19T18:02:32;4.47;;;3.67;;
15192;SDS011;7697;51.630;7.484;2022-08-19T18:07:35;4.38;;;3.97;;
15192;SDS011;7697;51.630;7.484;2022-08-19T18:12:36;3.90;;;3.50;;
15192;SDS011;7697;51.630;7.484;2022-08-19T18:17:38;3.60;;;3.30;;
15192;SDS011;7697;51.630;7.484;2022-08-19T18:22:43;3.55;;;3.25;;
15192;SDS011;7697;51.630;7.484;2022-08-19T18:27:47;3.75;;;3.33;;
15192;SDS011;7697;51.630;7.484;2022-08-19T18:32:48;4.38;;;3.97;;
15192;SDS011;7697;51.630;7.484;2022-08-19T18:37:53;5.63;;;4.40;;
15192;SDS011;7697;51.630;7.484;2022-08-19T18:42:56;4.38;;;3.97;;
15192;SDS011;7697;51.630;7.484;2022-08-19T18:48:15;17.67;;;4.47;;
15192;SDS011;7697;51.630;7.484;2022-08-19T18:53:36;4.88;;;4.15;;
15192;SDS011;7697;51.630;7.484;2022-08-19T18:58:40;3.70;;;3.38;;
15192;SDS011;7697;51.630;7.484;2022-08-19T19:03:43;4.03;;;3.67;;
15192;SDS011;7697;51.630;7.484;2022-08-19T19:08:50;4.20;;;3.47;;
15192;SDS011;7697;51.630;7.484;2022-08-19T19:13:53;4.47;;;4.03;;
15192;SDS011;7697;51.630;7.484;2022-08-19T19:18:55;5.38;;;4.78;;
15192;SDS011;7697;51.630;7.484;2022-08-19T19:23:58;5.20;;;3.97;;
15192;SDS011;7697;51.630;7.484;2022-08-19T19:29:00;8.18;;;4.13;;
15192;SDS011;7697;51.630;7.484;2022-08-19T19:34:02;3.90;;;3.60;;
15192;SDS011;7697;51.630;7.484;2022-08-19T19:39:06;5.00;;;3.97;;
15192;SDS011;7697;51.630;7.484;2022-08-19T19:44:08;4.72;;;4.18;;
15192;SDS011;7697;51.630;7.484;2022-08-19T19:49:10;4.55;;;4.15;;
15192;SDS011;7697;51.630;7.484;2022-08-19T19:54:14;4.82;;;4.05;;
15192;SDS011;7697;51.630;7.484;2022-08-19T19:59:17;4.80;;;4.40;;
15192;SDS011;7697;51.630;7.484;2022-08-19T20:04:18;4.95;;;4.45;;
15192;SDS011;7697;51.630;7.484;2022-08-19T20:09:21;4.90;;;4.40;;
15192;SDS011;7697;51.630;7.484;2022-08-19T20:14:25;5.55;;;4.95;;
15192;SDS011;7697;51.630;7.484;2022-08-19T20:19:30;5.38;;;4.88;;
15192;SDS011;7697;51.630;7.484;2022-08-19T20:24:37;4.80;;;4.32;;
15192;SDS011;7697;51.630;7.484;2022-08-19T20:29:41;5.18;;;4.60;;
15192;SDS011;7697;51.630;7.484;2022-08-19T20:34:43;5.45;;;4.95;;
15192;SDS011;7697;51.630;7.484;2022-08-19T20:39:49;4.75;;;4.22;;
15192;SDS011;7697;51.630;7.484;2022-08-19T20:44:51;6.47;;;4.25;;
15192;SDS011;7697;51.630;7.484;2022-08-19T20:49:52;5.90;;;4.75;;
15192;SDS011;7697;51.630;7.484;2022-08-19T20:54:56;5.22;;;4.72;;
15192;SDS011;7697;51.630;7.484;2022-08-19T20:59:57;7.20;;;5.45;;
15192;SDS011;7697;51.630;7.484;2022-08-19T21:04:59;5.05;;;4.40;;
15192;SDS011;7697;51.630;7.484;2022-08-19T21:10:03;4.80;;;4.30;;
15192;SDS011;7697;51.630;7.484;2022-08-19T21:15:06;5.15;;;4.65;;
15192;SDS011;7697;51.630;7.484;2022-08-19T21:20:08;4.40;;;3.95;;
15192;SDS011;7697;51.630;7.484;2022-08-19T21:25:12;3.95;;;3.53;;
15192;SDS011;7697;51.630;7.484;2022-08-19T21:30:14;3.55;;;3.25;;
15192;SDS011;7697;51.630;7.484;2022-08-19T21:35:15;3.88;;;3.47;;
15192;SDS011;7697;51.630;7.484;2022-08-19T21:40:19;4.07;;;3.63;;
15192;SDS011;7697;51.630;7.484;2022-08-19T21:45:21;3.85;;;3.45;;
15192;SDS011;7697;51.630;7.484;2022-08-19T21:50:23;3.63;;;3.33;;
15192;SDS011;7697;51.630;7.484;2022-08-19T21:55:27;3.70;;;3.40;;
15192;SDS011;7697;51.630;7.484;2022-08-19T22:00:29;4.00;;;3.60;;
15192;SDS011;7697;51.630;7.484;2022-08-19T22:05:33;3.03;;;2.83;;
15192;SDS011;7697;51.630;7.484;2022-08-19T22:10:36;3.88;;;3.30;;
15192;SDS011;7697;51.630;7.484;2022-08-19T22:15:38;3.53;;;3.05;;
15192;SDS011;7697;51.630;7.484;2022-08-19T22:20:40;3.13;;;2.88;;
15192;SDS011;7697;51.630;7.484;2022-08-19T22:25:43;3.17;;;2.88;;
15192;SDS011;7697;51.630;7.484;2022-08-19T22:30:46;3.35;;;3.05;;
15192;SDS011;7697;51.630;7.484;2022-08-19T22:35:48;3.13;;;2.83;;
15192;SDS011;7697;51.630;7.484;2022-08-19T22:40:54;4.32;;;3.38;;
15192;SDS011;7697;51.630;7.484;2022-08-19T22:45:56;4.10;;;3.42;;
15192;SDS011;7697;51.630;7.484;2022-08-19T22:50:59;3.85;;;3.55;;
15192;SDS011;7697;51.630;7.484;2022-08-19T22:56:20;3.20;;;2.90;;
15192;SDS011;7697;51.630;7.484;2022-08-19T23:01:21;3.92;;;3.53;;
15192;SDS011;7697;51.630;7.484;2022-08-19T23:06:24;4.45;;;3.25;;
15192;SDS011;7697;51.630;7.484;2022-08-19T23:11:27;3.38;;;3.08;;
15192;SDS011;7697;51.630;7.484;2022-08-19T23:16:28;3.85;;;3.40;;
15192;SDS011;7697;51.630;7.484;2022-08-19T23:21:30;3.53;;;3.22;;
15192;SDS011;7697;51.630;7.484;2022-08-19T23:26:33;3.70;;;3.40;;
15192;SDS011;7697;51.630;7.484;2022-08-19T23:31:35;3.47;;;3.17;;
15192;SDS011;7697;51.630;7.484;2022-08-19T23:36:37;3.72;;;3.30;;
15192;SDS011;7697;51.630;7.484;2022-08-19T23:41:40;3.95;;;3.47;;
15192;SDS011;7697;51.630;7.484;2022-08-19T23:46:42;4.07;;;3.78;;
15192;SDS011;7697;51.630;7.484;2022-08-19T23:51:43;5.53;;;5.03;;
15192;SDS011;7697;51.630;7.484;2022-08-19T23:56:46;4.97;;;4.47;;
